Time;durP1;ratioP1;P1;durP2;ratioP2;P2;SDS_P1;SDS_P2;PMS_P1;PMS_P2;Temp;Humidity;BMP_temperature;BMP_pressure;BME280_temperature;BME280_humidity;BME280_pressure;Samples;Min_cycle;Max_cycle;Signal;HPM_P1;HPM_P2
2020/03/08 00:01:04;;;;;;;21.7;17.4;;;;;;;2;94.89551;964.8337;;;;
2020/03/08 00:03:27;;;;;;;23.9;19.2;;;;;;;2.03;96.66113;964.8427;;;;
2020/03/08 00:05:52;;;;;;;21.1;16.7;;;;;;;2.06;94.37891;964.8856;;;;
2020/03/08 00:08:17;;;;;;;17.9;15.5;;;;;;;2.14;95.1084;964.8678;;;;
2020/03/08 00:10:42;;;;;;;17.3;14.3;;;;;;;2.07;94.83203;964.8125;;;;
2020/03/08 00:13:07;;;;;;;18.3;14.4;;;;;;;2.19;95.46973;964.8284;;;;
2020/03/08 00:15:33;;;;;;;19;15;;;;;;;2.11;93.9873;964.7997;;;;
2020/03/08 00:17:58;;;;;;;20.8;17.1;;;;;;;2.09;94.5;964.7836;;;;
2020/03/08 00:20:23;;;;;;;20;16.7;;;;;;;2.19;94.83789;964.7472;;;;
2020/03/08 00:22:49;;;;;;;21.7;18.1;;;;;;;2.07;94.08789;964.7651;;;;
2020/03/08 00:25:14;;;;;;;18.5;14.5;;;;;;;1.99;94.78223;964.729;;;;
2020/03/08 00:27:39;;;;;;;19;15.6;;;;;;;2;95.22461;964.7511;;;;
2020/03/08 00:30:04;;;;;;;17;14.2;;;;;;;1.94;95.06348;964.7725;;;;
2020/03/08 00:32:29;;;;;;;15.7;14;;;;;;;2.1;95.81055;964.7564;;;;
2020/03/08 00:34:55;;;;;;;16.7;14.4;;;;;;;2.04;94.77051;964.7553;;;;
2020/03/08 00:37:20;;;;;;;15.8;14;;;;;;;1.93;94.76855;964.7061;;;;
2020/03/08 00:39:45;;;;;;;17.1;14.9;;;;;;;1.93;95.60352;964.6955;;;;
2020/03/08 00:42:10;;;;;;;16.3;14.6;;;;;;;2;94.47754;964.6641;;;;
2020/03/08 00:44:35;;;;;;;17;14;;;;;;;1.94;94.80469;964.5892;;;;
2020/03/08 00:47:01;;;;;;;16.5;13.6;;;;;;;1.9;95.01953;964.5594;;;;
2020/03/08 00:49:26;;;;;;;16.1;13.8;;;;;;;1.89;95.52539;964.5156;;;;
2020/03/08 00:51:51;;;;;;;16;14;;;;;;;1.8;95.02246;964.4976;;;;
2020/03/08 00:54:16;;;;;;;15.3;13.5;;;;;;;1.85;95.35742;964.4952;;;;
2020/03/08 00:56:41;;;;;;;16.8;14.3;;;;;;;1.8;95.56348;964.4655;;;;
2020/03/08 00:59:06;;;;;;;15.3;13.2;;;;;;;1.75;95.32617;964.3803;;;;
2020/03/08 01:01:32;;;;;;;17.5;14.6;;;;;;;1.84;94.66797;964.3862;;;;
2020/03/08 01:03:57;;;;;;;16.8;14;;;;;;;1.96;94.57129;964.3438;;;;
2020/03/08 01:06:22;;;;;;;17.5;14.1;;;;;;;1.96;95.68848;964.4128;;;;
2020/03/08 01:08:47;;;;;;;17;14.5;;;;;;;1.89;95.54785;964.3219;;;;
2020/03/08 01:11:13;;;;;;;17.2;14.8;;;;;;;1.97;95.55469;964.3281;;;;
2020/03/08 01:13:38;;;;;;;15.8;13.6;;;;;;;1.95;94.54688;964.3208;;;;
2020/03/08 01:16:03;;;;;;;17.5;13.8;;;;;;;1.96;94.48145;964.2689;;;;
2020/03/08 01:18:28;;;;;;;16;13.6;;;;;;;1.95;95.22363;964.3248;;;;
2020/03/08 01:20:53;;;;;;;14.9;12.6;;;;;;;1.98;95.39941;964.3248;;;;
2020/03/08 01:23:18;;;;;;;16.6;14;;;;;;;1.83;94.09277;964.3344;;;;
2020/03/08 01:25:43;;;;;;;16.1;13.6;;;;;;;1.82;94.37207;964.2808;;;;
2020/03/08 01:28:08;;;;;;;16.9;13.6;;;;;;;1.84;94.74805;964.2297;;;;
2020/03/08 01:30:33;;;;;;;15.1;13.2;;;;;;;1.94;95.36816;964.21;;;;
2020/03/08 01:32:58;;;;;;;15.2;13.3;;;;;;;2.03;95.14258;964.2141;;;;
2020/03/08 01:35:23;;;;;;;17.1;13;;;;;;;1.8;94.52441;964.1735;;;;
2020/03/08 01:37:48;;;;;;;16.5;13;;;;;;;1.78;94.91504;964.2238;;;;
2020/03/08 01:40:14;;;;;;;16.4;13.4;;;;;;;1.89;94.79199;964.2319;;;;
2020/03/08 01:42:39;;;;;;;16;12.7;;;;;;;1.92;94.74414;964.1456;;;;
2020/03/08 01:45:04;;;;;;;15.9;12.7;;;;;;;1.86;93.96289;964.1411;;;;
2020/03/08 01:47:29;;;;;;;16.2;13.2;;;;;;;1.82;95.14844;964.1127;;;;
2020/03/08 01:49:54;;;;;;;15.4;12.7;;;;;;;1.84;94.97168;964.0778;;;;
2020/03/08 01:52:20;;;;;;;15.1;12.4;;;;;;;1.79;94.83789;964.0305;;;;
2020/03/08 01:54:45;;;;;;;17.4;13.1;;;;;;;1.72;94.16992;963.9576;;;;
2020/03/08 01:57:10;;;;;;;16.8;13.5;;;;;;;1.83;94.80273;963.9986;;;;
2020/03/08 01:59:36;;;;;;;14.2;12.7;;;;;;;1.86;94.97852;963.9772;;;;
2020/03/08 02:02:01;;;;;;;14;12.5;;;;;;;1.9;93.59863;963.9545;;;;
2020/03/08 02:04:27;;;;;;;14.6;11.9;;;;;;;1.86;93.6582;963.9556;;;;
2020/03/08 02:06:52;;;;;;;14.6;11.9;;;;;;;1.86;93.26367;963.921;;;;
2020/03/08 02:09:17;;;;;;;17.3;14.3;;;;;;;1.83;94.00195;963.8808;;;;
2020/03/08 02:11:42;;;;;;;18.1;14.7;;;;;;;1.78;94.65527;963.8198;;;;
2020/03/08 02:14:07;;;;;;;15.8;14;;;;;;;1.84;93.94824;963.7518;;;;
2020/03/08 02:16:33;;;;;;;17.2;14.9;;;;;;;1.78;94.33984;963.7081;;;;
2020/03/08 02:18:58;;;;;;;19;15.2;;;;;;;1.79;94.5791;963.7156;;;;
2020/03/08 02:21:23;;;;;;;17.6;14.1;;;;;;;1.7;93.75781;963.6825;;;;
2020/03/08 02:23:49;;;;;;;17;14.5;;;;;;;1.73;94.99316;963.6983;;;;
2020/03/08 02:26:13;;;;;;;16.6;14;;;;;;;1.73;94.14746;963.7107;;;;
2020/03/08 02:28:38;;;;;;;17.1;14.6;;;;;;;1.65;93.49805;963.7042;;;;
2020/03/08 02:31:03;;;;;;;17.3;14.4;;;;;;;1.62;94.35059;963.6818;;;;
2020/03/08 02:33:28;;;;;;;18;14.5;;;;;;;1.57;95.02637;963.6683;;;;
2020/03/08 02:35:53;;;;;;;18.5;15.2;;;;;;;1.46;93.85352;963.5901;;;;
2020/03/08 02:38:18;;;;;;;15.9;13.9;;;;;;;1.57;94.62109;963.572;;;;
2020/03/08 02:40:43;;;;;;;16.5;13.4;;;;;;;1.64;93.8125;963.5662;;;;
2020/03/08 02:43:08;;;;;;;17.9;14.6;;;;;;;1.4;93.96289;963.5474;;;;
2020/03/08 02:45:33;;;;;;;18;14.6;;;;;;;1.52;94.51855;963.5736;;;;
2020/03/08 02:47:59;;;;;;;18.5;14.6;;;;;;;1.55;93.91602;963.5392;;;;
2020/03/08 02:50:24;;;;;;;17.8;14.8;;;;;;;1.69;94.91895;963.5648;;;;
2020/03/08 02:52:49;;;;;;;18.6;14.9;;;;;;;1.53;95.2959;963.5131;;;;
2020/03/08 02:55:14;;;;;;;16.8;15;;;;;;;1.49;94.94043;963.4681;;;;
2020/03/08 02:57:39;;;;;;;19;15.5;;;;;;;1.58;95.16406;963.4947;;;;
2020/03/08 03:00:04;;;;;;;15.7;14.1;;;;;;;1.54;94.41211;963.5117;;;;
2020/03/08 03:02:29;;;;;;;17.2;14;;;;;;;1.51;94.02051;963.4777;;;;
2020/03/08 03:04:55;;;;;;;16.2;13.9;;;;;;;1.53;94.19629;963.4308;;;;
2020/03/08 03:07:20;;;;;;;16.6;13.7;;;;;;;1.56;94.31445;963.4863;;;;
2020/03/08 03:09:45;;;;;;;17.4;14.7;;;;;;;1.47;94.28125;963.53;;;;
2020/03/08 03:12:10;;;;;;;18.4;15.6;;;;;;;1.24;94.24316;963.5363;;;;
2020/03/08 03:14:35;;;;;;;17.8;14.9;;;;;;;1.4;95.63086;963.5778;;;;
2020/03/08 03:17:00;;;;;;;17.8;14.9;;;;;;;1.47;94.20215;963.5637;;;;
2020/03/08 03:19:25;;;;;;;17.2;14.2;;;;;;;1.4;94.35547;963.522;;;;
2020/03/08 03:21:50;;;;;;;18.4;14.7;;;;;;;1.29;94.80469;963.5081;;;;
2020/03/08 03:24:16;;;;;;;18.7;15.5;;;;;;;1.26;95.09082;963.571;;;;
2020/03/08 03:26:41;;;;;;;17.8;14.3;;;;;;;1.38;94.47754;963.5751;;;;
2020/03/08 03:29:06;;;;;;;18.5;15.1;;;;;;;1.22;94.42773;963.5619;;;;
2020/03/08 03:31:32;;;;;;;20.1;15.9;;;;;;;1.38;95.10645;963.5236;;;;
2020/03/08 03:33:56;;;;;;;18.1;15.1;;;;;;;1.32;94.4502;963.4646;;;;
2020/03/08 03:36:21;;;;;;;16.8;14.3;;;;;;;1.4;94.25391;963.4642;;;;
2020/03/08 03:38:47;;;;;;;16.3;14.6;;;;;;;1.4;93.78125;963.4828;;;;
2020/03/08 03:41:12;;;;;;;18.7;14.5;;;;;;;1.37;94.54102;963.452;;;;
2020/03/08 03:43:37;;;;;;;16.3;14.5;;;;;;;1.3;94.77441;963.3951;;;;
2020/03/08 03:46:02;;;;;;;17.4;14.7;;;;;;;1.23;95.20898;963.3853;;;;
2020/03/08 03:48:27;;;;;;;18.3;14.7;;;;;;;1.26;95.44043;963.3761;;;;
2020/03/08 03:50:53;;;;;;;17.1;15;;;;;;;1.25;94.78516;963.4193;;;;
2020/03/08 03:53:18;;;;;;;16.9;14.4;;;;;;;1.19;95.16309;963.3906;;;;
2020/03/08 03:55:43;;;;;;;16.5;14.7;;;;;;;1.17;94.89063;963.392;;;;
2020/03/08 03:58:08;;;;;;;16.3;13.7;;;;;;;1.22;94.88086;963.3638;;;;
2020/03/08 04:02:27;;;;;;;16.9;13.7;;;;;;;1.3;96.05859;963.3486;;;;
2020/03/08 04:04:52;;;;;;;15.5;12.8;;;;;;;1.27;93.64063;963.3574;;;;
2020/03/08 04:07:17;;;;;;;16.2;13;;;;;;;1.26;94.53906;963.3408;;;;
2020/03/08 04:09:42;;;;;;;15.1;12.1;;;;;;;1.27;94.02344;963.3114;;;;
2020/03/08 04:12:07;;;;;;;13.3;11.8;;;;;;;1.26;94.4043;963.2885;;;;
2020/03/08 04:14:32;;;;;;;15.7;12.3;;;;;;;1.4;95.04297;963.3695;;;;
2020/03/08 04:16:57;;;;;;;14.7;11.6;;;;;;;1.36;93.96484;963.3497;;;;
2020/03/08 04:19:22;;;;;;;14.3;11.6;;;;;;;1.36;94.22363;963.3716;;;;
2020/03/08 04:21:47;;;;;;;14.4;12;;;;;;;1.36;94.5498;963.3417;;;;
2020/03/08 04:24:12;;;;;;;13;11.6;;;;;;;1.35;93.94043;963.293;;;;
2020/03/08 04:26:37;;;;;;;13.9;11.5;;;;;;;1.38;94.31738;963.2955;;;;
2020/03/08 04:29:03;;;;;;;12.9;10.9;;;;;;;1.43;93.50684;963.2631;;;;
2020/03/08 04:31:28;;;;;;;12.4;10.8;;;;;;;1.39;93.86914;963.2996;;;;
2020/03/08 04:33:53;;;;;;;13.7;11.9;;;;;;;1.24;94.16406;963.3427;;;;
2020/03/08 04:36:18;;;;;;;13.1;11.7;;;;;;;1.2;94.3457;963.2867;;;;
2020/03/08 04:38:43;;;;;;;13.9;12.4;;;;;;;1.3;94.46875;963.2562;;;;
2020/03/08 04:41:08;;;;;;;14.2;12.7;;;;;;;1.03;94.41992;963.3027;;;;
2020/03/08 04:43:33;;;;;;;13.1;11.7;;;;;;;1.25;94.94531;963.2285;;;;
2020/03/08 04:45:58;;;;;;;13.7;12.2;;;;;;;1.27;94.29395;963.2809;;;;
2020/03/08 04:48:23;;;;;;;14.1;12.6;;;;;;;1.22;94.06738;963.2736;;;;
2020/03/08 04:50:48;;;;;;;15.1;12.3;;;;;;;1.28;94.60156;963.2654;;;;
2020/03/08 04:53:14;;;;;;;15.3;12.4;;;;;;;1.29;94.29785;963.2325;;;;
2020/03/08 04:55:39;;;;;;;13.5;11.7;;;;;;;1.28;93.41895;963.2294;;;;
2020/03/08 04:58:04;;;;;;;13.1;11.5;;;;;;;1.27;93.6748;963.2482;;;;
2020/03/08 05:00:29;;;;;;;16.6;13.8;;;;;;;1.27;93.35742;963.2148;;;;
2020/03/08 05:02:54;;;;;;;15.7;14.1;;;;;;;1.24;93.39648;963.2397;;;;
2020/03/08 05:05:20;;;;;;;17.1;14.7;;;;;;;1.32;93.01074;963.252;;;;
2020/03/08 05:07:45;;;;;;;16.1;14.2;;;;;;;1.3;93.10742;963.2427;;;;
2020/03/08 05:10:10;;;;;;;16.2;13.5;;;;;;;1.28;93.08105;963.2461;;;;
2020/03/08 05:12:35;;;;;;;17.5;14.3;;;;;;;1.13;93.32715;963.2356;;;;
2020/03/08 05:15:00;;;;;;;15.1;13.5;;;;;;;1.18;93.02441;963.2369;;;;
2020/03/08 05:17:26;;;;;;;17.3;14.3;;;;;;;1.11;94.13379;963.2313;;;;
2020/03/08 05:19:51;;;;;;;16.5;13.9;;;;;;;1.1;93.98535;963.2431;;;;
2020/03/08 05:22:16;;;;;;;16.4;13.6;;;;;;;1.22;93.29297;963.291;;;;
2020/03/08 05:24:41;;;;;;;15.2;13.1;;;;;;;1.16;93.18848;963.2991;;;;
2020/03/08 05:27:06;;;;;;;18.3;14.9;;;;;;;1.06;94.11035;963.3123;;;;
2020/03/08 05:29:32;;;;;;;16.3;14.1;;;;;;;1.14;93.49805;963.2554;;;;
2020/03/08 05:31:58;;;;;;;18.5;14.6;;;;;;;1.14;93.04785;963.3308;;;;
2020/03/08 05:34:23;;;;;;;20;14.8;;;;;;;1.12;93.41699;963.3185;;;;
2020/03/08 05:36:48;;;;;;;16.8;13.9;;;;;;;1.29;92.87891;963.3664;;;;
2020/03/08 05:39:13;;;;;;;17.6;14.7;;;;;;;0.96;92.98828;963.3314;;;;
2020/03/08 05:41:38;;;;;;;18;15.1;;;;;;;1.01;94.0332;963.3959;;;;
2020/03/08 05:44:03;;;;;;;17.4;15.6;;;;;;;1.03;94.19434;963.3251;;;;
2020/03/08 05:46:28;;;;;;;19.7;15.1;;;;;;;0.92;94.14844;963.3784;;;;
2020/03/08 05:48:54;;;;;;;17.5;15.5;;;;;;;1;93.57031;963.3929;;;;
2020/03/08 05:51:19;;;;;;;18.1;15.3;;;;;;;0.88;94.82715;963.3872;;;;
2020/03/08 05:53:45;;;;;;;17.2;15;;;;;;;0.96;95.20508;963.4694;;;;
2020/03/08 05:56:10;;;;;;;17.7;14.9;;;;;;;1.01;95.14746;963.4778;;;;
2020/03/08 05:58:35;;;;;;;16.6;14.7;;;;;;;0.88;94.91699;963.421;;;;
2020/03/08 06:01:00;;;;;;;16.1;14.2;;;;;;;1;94.52637;963.5084;;;;
2020/03/08 06:03:25;;;;;;;16.4;14.7;;;;;;;0.97;94.17188;963.4921;;;;
2020/03/08 06:05:50;;;;;;;18;14.5;;;;;;;0.95;94.27832;963.4899;;;;
2020/03/08 06:08:15;;;;;;;17.5;14.9;;;;;;;0.88;94.47559;963.4913;;;;
2020/03/08 06:10:40;;;;;;;17.7;14.6;;;;;;;0.93;94.01563;963.5034;;;;
2020/03/08 06:13:05;;;;;;;16.3;14.6;;;;;;;0.96;94.37012;963.4788;;;;
2020/03/08 06:15:31;;;;;;;15.7;14;;;;;;;1.1;92.88281;963.5095;;;;
2020/03/08 06:17:56;;;;;;;16.1;14.4;;;;;;;1.06;93.3457;963.5441;;;;
2020/03/08 06:20:21;;;;;;;16;14.3;;;;;;;1.15;93.07422;963.504;;;;
2020/03/08 06:22:46;;;;;;;16;13.5;;;;;;;1.28;92.85645;963.4805;;;;
2020/03/08 06:25:11;;;;;;;16.8;13.7;;;;;;;1.39;92.93457;963.517;;;;
2020/03/08 06:27:36;;;;;;;14.3;12.8;;;;;;;1.46;91.98242;963.4666;;;;
2020/03/08 06:30:01;;;;;;;14.7;13.2;;;;;;;1.38;92.14551;963.4955;;;;
2020/03/08 06:32:26;;;;;;;17.4;13.8;;;;;;;1.28;91.97754;963.5206;;;;
2020/03/08 06:34:51;;;;;;;16.2;13.7;;;;;;;1.28;92.28027;963.5059;;;;
2020/03/08 06:37:17;;;;;;;15.7;14;;;;;;;1.25;92.35254;963.5133;;;;
2020/03/08 06:39:42;;;;;;;14.3;12.8;;;;;;;1.49;91.98828;963.4933;;;;
2020/03/08 06:42:07;;;;;;;15.5;13.4;;;;;;;1.46;91.85938;963.5564;;;;
2020/03/08 06:44:32;;;;;;;14.7;13.2;;;;;;;1.55;91.84277;963.5674;;;;
2020/03/08 06:46:57;;;;;;;14.8;13.1;;;;;;;1.65;91.27832;963.5486;;;;
2020/03/08 06:49:22;;;;;;;14.5;13;;;;;;;1.72;90.9209;963.5605;;;;
2020/03/08 06:51:47;;;;;;;14.8;13;;;;;;;1.82;90.89941;963.5658;;;;
2020/03/08 06:54:13;;;;;;;14.3;12.7;;;;;;;1.68;90.55078;963.5977;;;;
2020/03/08 06:56:38;;;;;;;15;13.1;;;;;;;1.79;91.37793;963.6195;;;;
2020/03/08 06:59:03;;;;;;;14.4;12.4;;;;;;;1.91;90.625;963.5621;;;;
2020/03/08 07:01:28;;;;;;;16.5;13.1;;;;;;;2.13;90.16113;963.5427;;;;
2020/03/08 07:03:53;;;;;;;14.1;11.6;;;;;;;2.26;89.19824;963.5109;;;;
2020/03/08 07:06:18;;;;;;;14.2;11.6;;;;;;;2.35;88.25586;963.5117;;;;
2020/03/08 07:08:44;;;;;;;14.4;11.9;;;;;;;2.44;88.86328;963.5371;;;;
2020/03/08 07:11:09;;;;;;;14.1;11.1;;;;;;;2.65;87.45898;963.5131;;;;
2020/03/08 07:13:34;;;;;;;12.6;11.3;;;;;;;2.57;87.56836;963.5306;;;;
2020/03/08 07:15:59;;;;;;;13.5;10.8;;;;;;;2.7;87.2793;963.5083;;;;
2020/03/08 07:18:24;;;;;;;13.1;10.9;;;;;;;2.78;86.24512;963.5712;;;;
2020/03/08 07:21:50;;;;;;;12.5;10.7;;;;;;;2.9;85.90723;963.5599;;;;
2020/03/08 07:24:15;;;;;;;11.7;10.4;;;;;;;2.99;86.78418;963.5623;;;;
2020/03/08 07:27:59;;;;;;;11.9;10.2;;;;;;;3.19;84.99219;963.55;;;;
2020/03/08 07:30:24;;;;;;;11.4;10;;;;;;;3.27;85.00977;963.5747;;;;
2020/03/08 07:32:49;;;;;;;10.5;9.5;;;;;;;3.35;85.09082;963.6122;;;;
2020/03/08 07:38:27;;;;;;;11.4;9.7;;;;;;;3.16;84.28516;963.6071;;;;
2020/03/08 07:40:52;;;;;;;11.2;10;;;;;;;3.43;83.13867;963.6142;;;;
2020/03/08 07:43:17;;;;;;;11;9.9;;;;;;;3.66;84.29199;963.5458;;;;
2020/03/08 07:45:42;;;;;;;11.1;9.9;;;;;;;3.96;82.73242;963.611;;;;
2020/03/08 07:48:07;;;;;;;12.6;9.4;;;;;;;4.06;81.81055;963.6096;;;;
2020/03/08 07:50:32;;;;;;;10.5;9.2;;;;;;;4.14;82.24512;963.5338;;;;
2020/03/08 07:52:57;;;;;;;9.8;8.8;;;;;;;4.31;80.93945;963.5634;;;;
2020/03/08 07:55:22;;;;;;;11;9.5;;;;;;;4.5;79.56836;963.5062;;;;
2020/03/08 07:57:47;;;;;;;11.8;9.7;;;;;;;4.34;80.33203;963.5374;;;;
2020/03/08 08:00:12;;;;;;;12.1;8.7;;;;;;;4.55;81.36035;963.5614;;;;
2020/03/08 08:02:37;;;;;;;11.3;8.3;;;;;;;4.83;78.26758;963.5159;;;;
2020/03/08 08:05:02;;;;;;;9.9;8.2;;;;;;;4.88;80.16309;963.535;;;;
2020/03/08 08:07:28;;;;;;;9.1;8;;;;;;;4.89;78.94727;963.5386;;;;
2020/03/08 08:09:53;;;;;;;10;8;;;;;;;5.04;78.0459;963.5184;;;;
2020/03/08 08:12:18;;;;;;;9.2;7.7;;;;;;;4.86;79.62402;963.5187;;;;
2020/03/08 08:14:43;;;;;;;9.4;7.6;;;;;;;4.94;78.81152;963.4597;;;;
2020/03/08 08:17:08;;;;;;;10;8.2;;;;;;;4.97;78.07813;963.5005;;;;
2020/03/08 08:19:33;;;;;;;8.7;7;;;;;;;5.09;77.67871;963.5367;;;;
2020/03/08 08:21:58;;;;;;;9.7;7.5;;;;;;;4.87;78.60547;963.5313;;;;
2020/03/08 08:24:23;;;;;;;8.3;7.1;;;;;;;4.76;79.77539;963.4891;;;;
2020/03/08 08:26:48;;;;;;;9.8;7.4;;;;;;;4.68;79.43359;963.4409;;;;
2020/03/08 08:29:14;;;;;;;11;7.4;;;;;;;4.64;80.09473;963.4978;;;;
2020/03/08 08:31:39;;;;;;;8.8;7.3;;;;;;;4.43;81.88086;963.4744;;;;
2020/03/08 08:34:04;;;;;;;9.6;7.3;;;;;;;4.14;81.90723;963.3823;;;;
2020/03/08 08:36:29;;;;;;;9.4;7;;;;;;;4.22;81.55957;963.4082;;;;
2020/03/08 08:38:55;;;;;;;11.1;7.6;;;;;;;4.08;82.89258;963.3931;;;;
2020/03/08 08:41:20;;;;;;;8.1;6.6;;;;;;;4.27;81.60254;963.3903;;;;
2020/03/08 08:43:46;;;;;;;9.9;6.7;;;;;;;4.54;81.1084;963.3937;;;;
2020/03/08 08:46:11;;;;;;;10;7.4;;;;;;;4.57;81.68164;963.332;;;;
2020/03/08 08:48:36;;;;;;;10.1;7.3;;;;;;;4.73;80.80371;963.3134;;;;
2020/03/08 08:51:01;;;;;;;9.8;6.8;;;;;;;4.5;77.86816;963.3516;;;;
2020/03/08 08:53:26;;;;;;;9.7;7.1;;;;;;;4.44;78.86621;963.364;;;;
2020/03/08 08:55:51;;;;;;;9.6;6.9;;;;;;;4.71;76.98633;963.3058;;;;
2020/03/08 08:58:16;;;;;;;8.2;6.6;;;;;;;4.78;76.85156;963.2486;;;;
2020/03/08 09:00:41;;;;;;;8.7;6.7;;;;;;;4.83;76.30273;963.2073;;;;
2020/03/08 09:03:06;;;;;;;9.5;7;;;;;;;4.99;76.05859;963.2671;;;;
2020/03/08 09:05:32;;;;;;;8.8;6.4;;;;;;;4.96;75.04297;963.2147;;;;
2020/03/08 09:07:57;;;;;;;8.7;6.7;;;;;;;4.87;74.38965;963.2017;;;;
2020/03/08 09:10:22;;;;;;;9.7;6.9;;;;;;;5;74.19727;963.166;;;;
2020/03/08 09:12:47;;;;;;;9.8;5.9;;;;;;;5.32;73.21875;963.1754;;;;
2020/03/08 09:15:12;;;;;;;8.9;6.1;;;;;;;5.55;72.07617;963.1058;;;;
2020/03/08 09:17:37;;;;;;;10.1;6.2;;;;;;;5.43;71.94043;963.1295;;;;
2020/03/08 09:20:02;;;;;;;7.9;5.7;;;;;;;5.56;72.20215;963.1013;;;;
2020/03/08 09:22:27;;;;;;;8.6;5.8;;;;;;;5.42;72.30469;963.0591;;;;
2020/03/08 09:24:52;;;;;;;7;5.7;;;;;;;5.35;71.24512;963.0419;;;;
2020/03/08 09:27:17;;;;;;;7.8;5.2;;;;;;;5.49;72.18066;962.9991;;;;
2020/03/08 09:29:42;;;;;;;7.8;5.3;;;;;;;5.67;70.43262;963.022;;;;
2020/03/08 09:32:08;;;;;;;7.6;4.9;;;;;;;5.65;69.00879;962.9808;;;;
2020/03/08 09:34:33;;;;;;;8.2;5.2;;;;;;;5.69;69.09473;962.9543;;;;
2020/03/08 09:36:58;;;;;;;6.7;4.8;;;;;;;5.62;68.35449;962.9269;;;;
2020/03/08 09:39:27;;;;;;;7.9;5.4;;;;;;;5.69;69.37891;962.8574;;;;
2020/03/08 09:41:52;;;;;;;6.5;4.5;;;;;;;5.87;67.61035;962.8892;;;;
2020/03/08 09:44:17;;;;;;;7.3;4.7;;;;;;;5.86;68.63379;962.8858;;;;
2020/03/08 09:46:43;;;;;;;9.5;6.1;;;;;;;6.1;66.22363;962.7996;;;;
2020/03/08 09:49:08;;;;;;;8;4.3;;;;;;;6.13;64.99707;962.7826;;;;
2020/03/08 09:51:33;;;;;;;6;3.9;;;;;;;6.14;63.98535;962.8024;;;;
2020/03/08 09:53:58;;;;;;;7;4.1;;;;;;;6.22;65.02148;962.8455;;;;
2020/03/08 09:56:23;;;;;;;7.6;4.3;;;;;;;6.21;64.17676;962.7626;;;;
2020/03/08 09:58:49;;;;;;;8.2;4.3;;;;;;;6.23;62.83496;962.7297;;;;
2020/03/08 10:01:14;;;;;;;6.2;4;;;;;;;6.4;63.20313;962.7417;;;;
2020/03/08 10:03:39;;;;;;;6.6;3.8;;;;;;;6.23;62.15234;962.6805;;;;
2020/03/08 10:06:04;;;;;;;7.5;4.2;;;;;;;6.31;62.00488;962.7061;;;;
2020/03/08 10:08:29;;;;;;;5.3;3.5;;;;;;;6.34;60.78906;962.6794;;;;
2020/03/08 10:10:54;;;;;;;5.8;3.6;;;;;;;6.38;59.62207;962.7424;;;;
2020/03/08 10:13:19;;;;;;;5.9;3.7;;;;;;;6.41;58.69043;962.6667;;;;
2020/03/08 10:15:44;;;;;;;5.1;3.3;;;;;;;6.41;58.50781;962.6537;;;;
2020/03/08 10:18:09;;;;;;;5.9;3.4;;;;;;;6.54;57.9668;962.6384;;;;
2020/03/08 10:20:35;;;;;;;7.9;3.9;;;;;;;6.33;57.02734;962.6334;;;;
2020/03/08 10:23:00;;;;;;;6.5;3.9;;;;;;;6.65;58.50684;962.6339;;;;
2020/03/08 10:25:25;;;;;;;7.9;4;;;;;;;6.45;58.46777;962.5499;;;;
2020/03/08 10:27:50;;;;;;;5.8;3.9;;;;;;;6.53;58.125;962.537;;;;
2020/03/08 10:30:15;;;;;;;6.7;4.1;;;;;;;6.58;58.14258;962.5078;;;;
2020/03/08 10:32:40;;;;;;;7.1;5.1;;;;;;;6.49;58.06348;962.5081;;;;
2020/03/08 10:35:05;;;;;;;6.2;3.9;;;;;;;6.6;59.07031;962.4691;;;;
2020/03/08 10:37:30;;;;;;;6.9;3.9;;;;;;;6.67;59.58008;962.4797;;;;
2020/03/08 10:39:55;;;;;;;7.3;4.5;;;;;;;6.8;58.71094;962.4292;;;;
2020/03/08 10:42:20;;;;;;;5.7;3.9;;;;;;;6.82;58.1416;962.4775;;;;
2020/03/08 10:44:45;;;;;;;5.1;3.7;;;;;;;6.9;58.4502;962.4677;;;;
2020/03/08 10:47:11;;;;;;;6.2;4;;;;;;;7;59.84473;962.4393;;;;
2020/03/08 10:49:36;;;;;;;6.4;4;;;;;;;6.71;59.73535;962.3439;;;;
2020/03/08 10:52:01;;;;;;;6.1;4;;;;;;;6.65;59.2373;962.3425;;;;
2020/03/08 10:54:26;;;;;;;6.4;4.1;;;;;;;6.76;59.13672;962.2889;;;;
2020/03/08 10:56:52;;;;;;;6.3;3.9;;;;;;;7.05;59.11035;962.3308;;;;
2020/03/08 10:59:17;;;;;;;6.5;4.3;;;;;;;6.86;59.7334;962.3246;;;;
2020/03/08 11:01:42;;;;;;;6.7;4.2;;;;;;;6.95;59.75684;962.2994;;;;
2020/03/08 11:04:08;;;;;;;6;4.4;;;;;;;7.09;61.90039;962.3226;;;;
2020/03/08 11:06:33;;;;;;;5.9;3.8;;;;;;;7.17;57.29883;962.2291;;;;
2020/03/08 11:08:58;;;;;;;8.3;4;;;;;;;7.26;58.69336;962.1861;;;;
2020/03/08 11:11:23;;;;;;;5.3;3.5;;;;;;;7.34;57.90332;962.1248;;;;
2020/03/08 11:13:49;;;;;;;7.1;4.5;;;;;;;7.34;57.48145;962.0569;;;;
2020/03/08 11:16:15;;;;;;;5.7;4.1;;;;;;;7.33;56.83984;962.0031;;;;
2020/03/08 11:18:40;;;;;;;6.4;4;;;;;;;7.37;57.22266;961.9647;;;;
2020/03/08 11:21:05;;;;;;;6.3;3.7;;;;;;;7.45;57.95313;961.9423;;;;
2020/03/08 11:23:30;;;;;;;5.2;3.6;;;;;;;7.57;57.375;961.8967;;;;
2020/03/08 11:25:55;;;;;;;6.4;4;;;;;;;7.49;58.03809;961.8309;;;;
2020/03/08 11:28:21;;;;;;;5.6;3.6;;;;;;;7.55;57.9209;961.8143;;;;
2020/03/08 11:30:46;;;;;;;7;3.9;;;;;;;7.81;56.53809;961.7729;;;;
2020/03/08 11:33:12;;;;;;;6;3.8;;;;;;;7.77;57.12793;961.6806;;;;
2020/03/08 11:35:37;;;;;;;5.5;4;;;;;;;7.48;57.28418;961.6272;;;;
2020/03/08 11:38:02;;;;;;;5.6;3.7;;;;;;;7.6;56.91113;961.6152;;;;
2020/03/08 11:40:28;;;;;;;5.9;3.6;;;;;;;7.7;57.3457;961.5865;;;;
2020/03/08 11:42:53;;;;;;;5.4;3.3;;;;;;;7.92;56.54199;961.5573;;;;
2020/03/08 11:45:18;;;;;;;5.1;3.5;;;;;;;7.7;55.66504;961.4738;;;;
2020/03/08 11:47:43;;;;;;;4.1;3.2;;;;;;;7.96;54.36035;961.4849;;;;
2020/03/08 11:50:09;;;;;;;6.8;4.1;;;;;;;7.93;54.66602;961.5298;;;;
2020/03/08 11:52:34;;;;;;;4.3;3.4;;;;;;;8.06;55.10645;961.4799;;;;
2020/03/08 11:55:00;;;;;;;6;3.8;;;;;;;7.71;56.11328;961.4497;;;;
2020/03/08 11:57:25;;;;;;;6.5;4.6;;;;;;;7.93;56.59863;961.4514;;;;
2020/03/08 11:59:50;;;;;;;5.7;3.7;;;;;;;7.95;55.82422;961.4422;;;;
2020/03/08 12:02:15;;;;;;;4.9;3.4;;;;;;;7.97;53.57422;961.3992;;;;
2020/03/08 12:04:40;;;;;;;5.3;3.3;;;;;;;8.08;54.25098;961.3329;;;;
2020/03/08 12:07:06;;;;;;;4;3.1;;;;;;;8.12;53.19043;961.295;;;;
2020/03/08 12:09:31;;;;;;;6.1;3.4;;;;;;;8.29;51.9873;961.3159;;;;
2020/03/08 12:11:56;;;;;;;5.4;3.5;;;;;;;8.31;51.0498;961.2455;;;;
2020/03/08 12:14:21;;;;;;;5.3;3;;;;;;;8.5;52.25293;961.2071;;;;
2020/03/08 12:16:46;;;;;;;5.1;3.3;;;;;;;8.34;52.40527;961.1733;;;;
2020/03/08 12:19:11;;;;;;;5.1;3.3;;;;;;;8.53;52.17578;961.1381;;;;
2020/03/08 12:21:37;;;;;;;4.7;3;;;;;;;8.56;52.47754;961.1284;;;;
2020/03/08 12:24:02;;;;;;;5.2;2.9;;;;;;;8.4;52.45898;961.0432;;;;
2020/03/08 12:26:27;;;;;;;4.4;3.2;;;;;;;8.52;52.85254;961.0605;;;;
2020/03/08 12:28:52;;;;;;;5.3;3.2;;;;;;;8.68;51.94238;961.0263;;;;
2020/03/08 12:31:17;;;;;;;3.6;2.7;;;;;;;8.92;50.40137;960.908;;;;
2020/03/08 12:33:42;;;;;;;5.5;3.4;;;;;;;8.65;50.89648;960.8964;;;;
2020/03/08 12:36:08;;;;;;;6.6;3.8;;;;;;;8.4;51.3252;960.906;;;;
2020/03/08 12:38:33;;;;;;;5.6;3.3;;;;;;;8.54;51.74316;960.8501;;;;
2020/03/08 12:40:58;;;;;;;5;3;;;;;;;8.78;50.5;960.8008;;;;
2020/03/08 12:43:23;;;;;;;6.2;3.6;;;;;;;8.93;51.18164;960.7781;;;;
2020/03/08 12:45:48;;;;;;;5.7;3.3;;;;;;;9;51.38477;960.742;;;;
2020/03/08 12:48:13;;;;;;;5.4;3.3;;;;;;;8.95;51.86035;960.6828;;;;
2020/03/08 12:50:39;;;;;;;7.3;3.6;;;;;;;9.03;51.46875;960.6799;;;;
2020/03/08 12:53:04;;;;;;;4.6;3.1;;;;;;;9.05;51.9873;960.5894;;;;
2020/03/08 12:55:30;;;;;;;4;3.2;;;;;;;8.94;51.96289;960.5417;;;;
2020/03/08 12:57:55;;;;;;;4.4;3.2;;;;;;;9.12;51.09082;960.416;;;;
2020/03/08 13:00:21;;;;;;;5.7;3.4;;;;;;;8.93;51.12402;960.4156;;;;
2020/03/08 13:02:46;;;;;;;4.8;3;;;;;;;9.18;49.63965;960.3273;;;;
2020/03/08 13:05:11;;;;;;;4.8;3.2;;;;;;;9.32;49.81738;960.3029;;;;
2020/03/08 13:07:36;;;;;;;4.9;3.2;;;;;;;9.14;51.26465;960.248;;;;
2020/03/08 13:10:01;;;;;;;5;3;;;;;;;9.26;50.99121;960.2453;;;;
2020/03/08 13:12:26;;;;;;;5.7;3.7;;;;;;;9.35;50.11816;960.2336;;;;
2020/03/08 13:14:52;;;;;;;4.8;2.9;;;;;;;9.47;50.28223;960.2009;;;;
2020/03/08 13:17:17;;;;;;;3.9;2.9;;;;;;;9.29;50.57031;960.1167;;;;
2020/03/08 13:19:42;;;;;;;5.5;2.8;;;;;;;9.09;51.36035;960.0937;;;;
2020/03/08 13:22:07;;;;;;;6.2;3.2;;;;;;;9.32;49.88477;960.0183;;;;
2020/03/08 13:24:32;;;;;;;4.3;2.6;;;;;;;9.6;49.90625;960.0317;;;;
2020/03/08 13:26:57;;;;;;;5.8;2.7;;;;;;;9.75;49.12012;959.9839;;;;
2020/03/08 13:29:23;;;;;;;4.5;2.5;;;;;;;9.9;50.06738;959.9161;;;;
2020/03/08 13:31:49;;;;;;;5.2;2.7;;;;;;;9.91;49.19629;959.9231;;;;
2020/03/08 13:34:14;;;;;;;6.1;3.2;;;;;;;9.75;49.85449;959.8786;;;;
2020/03/08 13:36:39;;;;;;;5.1;3.4;;;;;;;9.57;49.49023;959.8459;;;;
2020/03/08 13:39:06;;;;;;;4.2;2.8;;;;;;;9.74;50.93359;959.8427;;;;
2020/03/08 13:41:29;;;;;;;4.5;2.8;;;;;;;9.8;50.68848;959.8115;;;;
2020/03/08 13:43:54;;;;;;;3.8;2.7;;;;;;;9.89;50.82422;959.7434;;;;
2020/03/08 13:46:20;;;;;;;4.8;3.1;;;;;;;9.62;49.82813;959.7219;;;;
2020/03/08 13:48:45;;;;;;;6.2;3.1;;;;;;;9.71;50.11426;959.7078;;;;
2020/03/08 13:51:10;;;;;;;4.1;2.9;;;;;;;9.68;49.17969;959.6428;;;;
2020/03/08 13:53:35;;;;;;;5.3;2.8;;;;;;;9.83;49.96777;959.5776;;;;
2020/03/08 13:56:00;;;;;;;3.9;2.5;;;;;;;10.17;50.54688;959.5623;;;;
2020/03/08 13:58:25;;;;;;;4.6;3.3;;;;;;;9.88;48.49121;959.5602;;;;
2020/03/08 14:00:50;;;;;;;5;2.8;;;;;;;10.06;49.25781;959.5355;;;;
2020/03/08 14:03:16;;;;;;;3.2;2.4;;;;;;;10.4;48.88379;959.4261;;;;
2020/03/08 14:05:41;;;;;;;3.1;2.5;;;;;;;10.45;49.63672;959.4394;;;;
2020/03/08 14:08:06;;;;;;;3.5;2.6;;;;;;;10.31;48.02148;959.4594;;;;
2020/03/08 14:10:31;;;;;;;4;2.5;;;;;;;10.04;49.49707;959.3812;;;;
2020/03/08 14:12:56;;;;;;;4.3;2.6;;;;;;;10.14;48.94629;959.3703;;;;
2020/03/08 14:15:21;;;;;;;4.8;2.2;;;;;;;10.46;49.02832;959.2424;;;;
2020/03/08 14:17:46;;;;;;;4.9;2.6;;;;;;;10.6;48.51367;959.2597;;;;
2020/03/08 14:20:11;;;;;;;4.3;2.5;;;;;;;10.61;48.99902;959.2321;;;;